createdAt,value
2018-08-14T00:01:02.022Z,71.97
2018-08-14T00:03:31.391Z,72.97
2018-08-14T00:06:00.148Z,72.87
2018-08-14T00:08:29.025Z,72.30
2018-08-14T00:10:57.672Z,71.38
2018-08-14T00:13:26.471Z,71.93
2018-08-14T00:15:55.383Z,71.10
2018-08-14T00:18:24.209Z,70.87
2018-08-14T00:20:52.825Z,70.28
2018-08-14T00:23:21.462Z,70.73
2018-08-14T00:25:50.207Z,71.50
2018-08-14T00:28:18.902Z,71.20
2018-08-14T00:30:47.594Z,72.08
2018-08-14T00:33:16.515Z,71.28
2018-08-14T00:35:45.316Z,71.28
2018-08-14T00:38:14.275Z,71.37
2018-08-14T00:40:42.940Z,72.06
2018-08-14T00:43:11.637Z,72.38
2018-08-14T00:45:40.388Z,72.07
2018-08-14T00:48:09.431Z,71.70
2018-08-14T00:50:38.277Z,71.47
2018-08-14T00:53:07.412Z,71.08
2018-08-14T00:55:36.236Z,71.21
2018-08-14T00:58:05.417Z,71.54
2018-08-14T01:00:35.606Z,71.42
2018-08-14T01:03:04.491Z,71.48
2018-08-14T01:05:33.164Z,71.62
2018-08-14T01:08:02.204Z,71.25
2018-08-14T01:10:30.956Z,70.96
2018-08-14T01:12:59.785Z,71.26
2018-08-14T01:15:30.739Z,72.63
2018-08-14T01:17:59.787Z,72.17
2018-08-14T01:20:30.685Z,72.42
2018-08-14T01:22:59.778Z,71.20
2018-08-14T01:25:28.428Z,70.92
2018-08-14T01:27:57.314Z,70.83
2018-08-14T01:30:27.453Z,70.42
2018-08-14T01:32:56.106Z,70.88
2018-08-14T01:35:24.919Z,71.12
2018-08-14T01:37:53.568Z,71.22
2018-08-14T01:40:22.303Z,70.52
2018-08-14T01:42:50.996Z,69.78
2018-08-14T01:45:19.731Z,70.07
2018-08-14T01:47:48.503Z,69.77
2018-08-14T01:50:20.759Z,69.46
2018-08-14T01:52:49.682Z,69.85
2018-08-14T01:55:19.522Z,70.15
2018-08-14T01:57:48.774Z,70.57
2018-08-14T02:00:17.663Z,70.75
2018-08-14T02:02:46.391Z,70.63
2018-08-14T02:05:15.063Z,70.10
2018-08-14T02:07:43.783Z,70.13
2018-08-14T02:10:14.747Z,70.47
2018-08-14T02:12:43.791Z,69.96
2018-08-14T02:15:14.844Z,70.17
2018-08-14T02:17:43.647Z,70.66
2018-08-14T02:20:16.795Z,70.02
2018-08-14T02:22:45.781Z,71.26
2018-08-14T02:25:14.720Z,71.08
2018-08-14T02:27:44.414Z,71.83
2018-08-14T02:30:13.516Z,71.64
2018-08-14T02:35:38.693Z,73.65
2018-08-14T02:38:07.504Z,74.09
2018-08-14T02:40:36.168Z,74.26
2018-08-14T02:43:04.935Z,74.13
2018-08-14T02:45:33.580Z,73.75
2018-08-14T02:48:02.252Z,74.96
2018-08-14T02:50:31.200Z,74.15
2018-08-14T02:52:59.911Z,73.78
2018-08-14T02:55:29.075Z,73.76
2018-08-14T02:57:57.956Z,73.21
2018-08-14T03:00:28.547Z,74.59
2018-08-14T03:02:57.974Z,73.08
2018-08-14T03:05:26.927Z,72.13
2018-08-14T03:07:55.647Z,72.64
2018-08-14T03:10:24.363Z,72.61
2018-08-14T03:12:53.243Z,72.00
2018-08-14T03:15:22.853Z,72.43
2018-08-14T03:17:53.353Z,72.56
2018-08-14T03:20:22.142Z,71.84
2018-08-14T03:22:51.025Z,72.34
2018-08-14T03:25:20.139Z,72.14
2018-08-14T03:27:49.328Z,72.63
2018-08-14T03:30:17.980Z,72.12
2018-08-14T03:32:46.922Z,72.25
2018-08-14T03:35:16.490Z,72.18
2018-08-14T03:37:45.317Z,71.95
2018-08-14T03:40:16.516Z,72.64
2018-08-14T03:42:46.453Z,72.69
2018-08-14T03:45:15.257Z,72.54
2018-08-14T03:47:44.463Z,72.29
2018-08-14T03:50:13.610Z,72.31
2018-08-14T03:55:13.920Z,72.23
2018-08-14T03:57:43.071Z,71.86
2018-08-14T04:00:14.151Z,71.89
2018-08-14T04:02:42.839Z,73.03
2018-08-14T04:05:12.020Z,72.50
2018-08-14T04:07:40.895Z,71.99
2018-08-14T04:10:10.703Z,72.25
2018-08-14T04:12:39.578Z,71.56
2018-08-14T04:15:09.431Z,71.31
2018-08-14T04:17:38.176Z,71.24
2018-08-14T04:20:10.812Z,70.66
2018-08-14T04:22:40.143Z,71.07
2018-08-14T04:25:09.975Z,71.10
2018-08-14T04:27:39.097Z,70.87
2018-08-14T04:30:09.961Z,71.77
2018-08-14T04:32:38.699Z,72.23
2018-08-14T04:35:07.359Z,72.07
2018-08-14T04:37:36.128Z,71.92
2018-08-14T04:40:06.852Z,71.57
2018-08-14T04:42:35.659Z,71.41
2018-08-14T04:45:04.591Z,71.95
2018-08-14T04:47:33.239Z,72.52
2018-08-14T04:50:02.107Z,71.53
2018-08-14T04:52:30.727Z,71.62
2018-08-14T04:54:59.400Z,71.13
2018-08-14T04:57:28.209Z,71.22
2018-08-14T04:59:57.095Z,71.07
2018-08-14T05:02:25.807Z,71.42
2018-08-14T05:04:54.492Z,71.82
2018-08-14T05:07:23.056Z,71.56
2018-08-14T05:09:51.711Z,71.79
2018-08-14T05:12:20.380Z,70.95
2018-08-14T05:14:49.080Z,70.74
2018-08-14T05:17:17.684Z,70.93
2018-08-14T05:19:46.519Z,70.40
2018-08-14T05:22:15.267Z,69.60
2018-08-14T05:24:43.907Z,68.78
2018-08-14T05:27:13.063Z,68.18
2018-08-14T05:29:41.949Z,67.45
2018-08-14T05:32:10.673Z,67.16
2018-08-14T05:34:39.769Z,67.06
2018-08-14T05:37:08.583Z,66.59
2018-08-14T05:39:37.300Z,65.59
2018-08-14T05:42:06.008Z,66.50
2018-08-14T05:44:34.674Z,65.87
2018-08-14T05:47:03.376Z,66.17
2018-08-14T05:49:32.263Z,65.50
2018-08-14T05:52:00.948Z,65.87
2018-08-14T05:54:29.495Z,65.23
2018-08-14T05:56:58.336Z,65.45
2018-08-14T05:59:26.992Z,65.39
2018-08-14T06:01:55.759Z,64.97
2018-08-14T06:04:24.548Z,64.64
2018-08-14T06:06:53.123Z,64.48
2018-08-14T06:09:21.724Z,63.96
2018-08-14T06:11:50.435Z,63.29
2018-08-14T06:14:19.083Z,63.87
2018-08-14T06:16:47.885Z,64.64
2018-08-14T06:19:16.595Z,64.71
2018-08-14T06:21:45.143Z,62.41
2018-08-14T06:24:13.886Z,60.67
2018-08-14T06:26:42.572Z,59.79
2018-08-14T06:29:11.296Z,59.04
2018-08-14T06:31:39.943Z,57.91
2018-08-14T06:34:08.929Z,57.30
2018-08-14T06:36:37.589Z,56.62
2018-08-14T06:39:11.704Z,55.78
2018-08-14T06:41:40.367Z,53.10
2018-08-14T06:44:09.159Z,53.71
2018-08-14T06:46:37.984Z,51.52
2018-08-14T06:49:07.025Z,50.41
2018-08-14T06:51:35.621Z,50.08
2018-08-14T06:54:04.683Z,50.27
2018-08-14T06:56:33.241Z,50.24
2018-08-14T06:59:01.876Z,49.76
2018-08-14T07:01:30.508Z,48.89
2018-08-14T07:03:59.379Z,49.07
2018-08-14T07:06:28.033Z,49.11
2018-08-14T07:08:56.839Z,49.39
2018-08-14T07:11:25.505Z,48.66
2018-08-14T07:13:54.216Z,47.71
2018-08-14T07:16:23.137Z,48.60
2018-08-14T07:18:51.936Z,47.33
2018-08-14T07:21:20.596Z,47.06
2018-08-14T07:23:49.503Z,45.79
2018-08-14T07:26:18.240Z,43.43
2018-08-14T07:28:47.092Z,43.90
2018-08-14T07:31:15.875Z,41.53
2018-08-14T07:33:44.528Z,41.96
2018-08-14T07:36:13.339Z,41.21
2018-08-14T07:38:42.180Z,40.77
2018-08-14T07:41:10.875Z,40.34
2018-08-14T07:43:39.612Z,40.34
2018-08-14T07:46:08.396Z,40.08
2018-08-14T07:48:37.095Z,40.15
2018-08-14T07:51:05.724Z,39.86
2018-08-14T07:53:34.480Z,37.64
2018-08-14T07:56:03.079Z,39.77
2018-08-14T07:58:31.737Z,38.60
2018-08-14T08:01:00.380Z,36.60
2018-08-14T08:03:29.119Z,36.14
2018-08-14T08:05:57.773Z,36.19
2018-08-14T08:08:26.456Z,34.50
2018-08-14T08:10:55.120Z,34.21
2018-08-14T08:13:23.808Z,33.57
2018-08-14T08:15:52.631Z,33.22
2018-08-14T08:18:21.304Z,33.48
2018-08-14T08:20:49.945Z,32.61
2018-08-14T08:23:20.197Z,33.57
2018-08-14T08:25:49.008Z,34.09
2018-08-14T08:28:17.629Z,34.87
2018-08-14T08:30:46.368Z,34.23
2018-08-14T08:33:15.188Z,37.68
2018-08-14T08:35:43.901Z,35.03
2018-08-14T08:38:12.499Z,32.20
2018-08-14T08:40:41.188Z,33.91
2018-08-14T08:43:09.935Z,32.78
2018-08-14T08:45:38.699Z,31.59
2018-08-14T08:48:16.739Z,31.06
2018-08-14T08:50:45.796Z,30.53
2018-08-14T08:53:15.676Z,28.72
2018-08-14T08:55:44.368Z,27.46
2018-08-14T08:58:13.412Z,27.36
2018-08-14T09:00:41.925Z,30.85
2018-08-14T09:03:10.793Z,31.87
2018-08-14T09:05:39.748Z,32.19
2018-08-14T09:08:11.764Z,31.63
2018-08-14T09:10:41.102Z,27.96
2018-08-14T09:13:11.094Z,29.62
2018-08-14T09:15:40.159Z,30.12
2018-08-14T09:18:09.104Z,28.21
2018-08-14T09:20:37.760Z,26.62
2018-08-14T09:23:06.695Z,25.75
2018-08-14T09:25:35.348Z,26.89
2018-08-14T09:28:04.033Z,25.71
2018-08-14T09:30:32.717Z,23.71
2018-08-14T09:33:01.415Z,25.27
2018-08-14T09:35:30.239Z,25.05
2018-08-14T09:37:59.138Z,25.72
2018-08-14T09:40:27.729Z,27.57
2018-08-14T09:42:56.453Z,27.39
2018-08-14T09:45:25.639Z,30.29
2018-08-14T09:47:54.335Z,31.82
2018-08-14T09:50:25.706Z,33.08
2018-08-14T09:52:54.542Z,32.07
2018-08-14T09:55:23.503Z,29.23
2018-08-14T09:57:53.401Z,24.82
2018-08-14T10:00:29.979Z,25.49
2018-08-14T10:03:03.991Z,25.45
2018-08-14T10:05:37.940Z,26.25
2018-08-14T10:08:12.895Z,26.59
2018-08-14T10:10:41.760Z,27.58
2018-08-14T10:13:11.736Z,24.86
2018-08-14T10:15:40.961Z,26.30
2018-08-14T10:18:11.963Z,29.09
2018-08-14T10:20:40.695Z,30.85
2018-08-14T10:23:09.392Z,31.58
2018-08-14T10:25:38.019Z,31.91
2018-08-14T10:28:07.256Z,32.58
2018-08-14T10:30:36.397Z,28.85
2018-08-14T10:33:05.887Z,30.37
2018-08-14T10:35:34.855Z,31.20
2018-08-14T10:38:04.012Z,31.59
2018-08-14T10:40:32.559Z,26.92
2018-08-14T10:43:01.528Z,22.25
2018-08-14T10:45:30.171Z,19.85
2018-08-14T10:47:58.799Z,18.06
2018-08-14T10:50:27.675Z,19.20
2018-08-14T10:52:56.333Z,20.24
2018-08-14T10:55:25.157Z,22.98
2018-08-14T10:57:53.952Z,25.20
2018-08-14T11:00:25.880Z,26.47
2018-08-14T11:02:55.111Z,24.88
2018-08-14T11:05:24.076Z,20.82
2018-08-14T11:07:53.868Z,21.68
2018-08-14T11:10:24.149Z,24.96
2018-08-14T11:12:53.079Z,27.34
2018-08-14T11:15:21.714Z,27.43
2018-08-14T11:17:50.476Z,24.73
2018-08-14T11:20:23.091Z,24.81
2018-08-14T11:22:52.251Z,26.28
2018-08-14T11:25:20.859Z,28.03
2018-08-14T11:27:49.579Z,27.02
2018-08-14T11:30:20.146Z,27.82
2018-08-14T11:32:48.977Z,27.89
2018-08-14T11:35:17.928Z,27.73
2018-08-14T11:37:46.635Z,26.41
2018-08-14T11:40:15.368Z,22.52
2018-08-14T11:42:44.091Z,20.80
2018-08-14T11:45:23.040Z,24.74
2018-08-14T11:47:52.350Z,26.84
2018-08-14T11:50:21.699Z,28.40
2018-08-14T11:52:52.055Z,28.69
2018-08-14T11:55:21.528Z,29.41
2018-08-14T11:57:51.086Z,29.79
2018-08-14T12:00:22.273Z,29.29
2018-08-14T12:02:51.515Z,23.89
2018-08-14T12:05:20.348Z,21.95
2018-08-14T12:07:48.940Z,19.28
2018-08-14T12:10:18.196Z,18.38
2018-08-14T12:12:46.881Z,16.93
2018-08-14T12:15:16.447Z,17.67
2018-08-14T12:17:46.271Z,18.06
2018-08-14T12:20:16.292Z,20.07
2018-08-14T12:22:45.175Z,20.78
2018-08-14T12:25:15.528Z,22.48
2018-08-14T12:27:44.500Z,24.99
2018-08-14T12:30:16.580Z,25.98
2018-08-14T12:32:45.429Z,27.56
2018-08-14T12:35:14.023Z,27.82
2018-08-14T12:37:43.035Z,27.93
2018-08-14T12:40:12.621Z,29.41
2018-08-14T12:42:41.328Z,30.75
2018-08-14T12:45:12.976Z,30.39
2018-08-14T12:47:41.747Z,31.26
2018-08-14T12:50:11.553Z,30.83
2018-08-14T12:52:40.472Z,31.22
2018-08-14T12:55:10.060Z,31.26
2018-08-14T12:57:38.949Z,32.69
2018-08-14T13:00:10.627Z,33.06
2018-08-14T13:02:39.188Z,32.79
2018-08-14T13:05:07.920Z,32.38
2018-08-14T13:07:36.667Z,32.60
2018-08-14T13:10:07.033Z,29.91
2018-08-14T13:12:35.923Z,29.29
2018-08-14T13:15:05.267Z,26.46
2018-08-14T13:17:33.843Z,24.10
2018-08-14T13:20:02.468Z,20.87
2018-08-14T13:22:31.147Z,21.18
2018-08-14T13:24:59.813Z,23.16
2018-08-14T13:27:28.628Z,25.25
2018-08-14T13:29:57.396Z,27.37
2018-08-14T13:32:26.193Z,28.61
2018-08-14T13:34:55.189Z,29.35
2018-08-14T13:37:24.025Z,30.46
2018-08-14T13:39:52.645Z,30.70
2018-08-14T13:42:21.258Z,30.00
2018-08-14T13:44:50.063Z,30.30
2018-08-14T13:47:18.615Z,30.66
2018-08-14T13:49:47.427Z,31.46
2018-08-14T13:52:16.166Z,31.26
2018-08-14T13:54:46.048Z,31.34
2018-08-14T13:57:14.817Z,31.49
2018-08-14T13:59:43.465Z,30.09
2018-08-14T14:02:12.328Z,27.40
2018-08-14T14:04:40.941Z,24.42
2018-08-14T14:07:10.463Z,23.64
2018-08-14T14:09:39.179Z,22.35
2018-08-14T14:12:07.830Z,20.59
2018-08-14T14:14:36.714Z,20.55
2018-08-14T14:17:05.928Z,22.20
2018-08-14T14:19:35.124Z,22.68
2018-08-14T14:22:05.020Z,21.36
2018-08-14T14:24:33.841Z,21.13
2018-08-14T14:27:02.655Z,22.26
2018-08-14T14:29:31.394Z,22.73
2018-08-14T14:32:00.367Z,25.00
2018-08-14T14:34:28.979Z,26.66
2018-08-14T14:36:57.657Z,24.10
2018-08-14T14:39:26.284Z,24.43
2018-08-14T14:41:55.215Z,25.84
2018-08-14T14:44:23.957Z,26.42
2018-08-14T14:46:52.544Z,26.46
2018-08-14T14:49:21.436Z,26.58
2018-08-14T14:51:50.127Z,27.89
2018-08-14T14:54:18.851Z,30.18
2018-08-14T14:56:47.612Z,31.94
2018-08-14T14:59:16.480Z,32.46
2018-08-14T16:46:31.447Z,41.31
2018-08-14T16:49:00.148Z,40.46
2018-08-14T16:51:28.803Z,40.48
2018-08-14T16:53:57.488Z,40.45
2018-08-14T16:56:26.223Z,40.45
2018-08-14T16:58:54.763Z,40.47
2018-08-14T17:01:23.419Z,40.48
2018-08-14T17:03:51.967Z,39.78
2018-08-14T17:06:21.231Z,40.03
2018-08-14T17:08:49.908Z,41.96
2018-08-14T17:11:18.455Z,42.82
2018-08-14T17:13:47.020Z,43.33
2018-08-14T17:16:15.624Z,43.99
2018-08-14T17:18:44.184Z,43.79
2018-08-14T17:21:11.484Z,44.14
2018-08-14T17:23:40.251Z,43.65
2018-08-14T17:26:08.801Z,44.16
2018-08-14T17:28:37.344Z,43.91
2018-08-14T17:31:05.951Z,45.15
2018-08-14T17:33:34.523Z,44.88
2018-08-14T17:36:03.088Z,44.89
2018-08-14T17:38:31.860Z,44.69
2018-08-14T17:41:00.444Z,45.40
2018-08-14T17:43:29.023Z,45.33
2018-08-14T17:45:57.635Z,45.27
2018-08-14T17:48:26.191Z,45.31
2018-08-14T17:50:54.798Z,45.54
2018-08-14T17:53:23.503Z,45.17
2018-08-14T17:55:52.083Z,45.58
2018-08-14T17:58:20.725Z,45.78
2018-08-14T18:00:49.275Z,45.80
2018-08-14T18:03:17.984Z,45.37
2018-08-14T18:05:46.556Z,45.37
2018-08-14T18:08:15.428Z,45.68
2018-08-14T18:10:44.039Z,46.03
2018-08-14T18:13:12.596Z,45.86
2018-08-14T18:15:41.164Z,45.97
2018-08-14T18:18:09.740Z,45.96
2018-08-14T18:20:38.323Z,46.35
2018-08-14T18:23:07.211Z,46.52
2018-08-14T18:25:42.549Z,46.64
2018-08-14T18:28:14.332Z,46.06
2018-08-14T18:30:47.259Z,45.98
2018-08-14T18:33:16.684Z,46.22
2018-08-14T18:35:45.503Z,45.49
2018-08-14T18:38:18.916Z,45.43
2018-08-14T18:40:48.216Z,46.03
2018-08-14T18:43:21.523Z,45.65
2018-08-14T18:45:50.240Z,45.72
2018-08-14T18:48:20.496Z,45.95
2018-08-14T18:50:49.794Z,45.81
2018-08-14T18:53:21.357Z,45.96
2018-08-14T18:55:52.163Z,46.34
2018-08-14T18:58:21.079Z,45.99
2018-08-14T19:00:51.683Z,45.94
2018-08-14T19:03:21.447Z,46.16
2018-08-14T19:05:52.968Z,46.82
2018-08-14T19:08:22.584Z,46.37
2018-08-14T19:10:53.166Z,46.86
2018-08-14T19:13:21.727Z,46.83
2018-08-14T19:15:51.738Z,47.03
2018-08-14T19:18:21.544Z,47.24
2018-08-14T19:20:51.143Z,46.77
2018-08-14T19:23:22.296Z,46.78
2018-08-14T19:25:52.767Z,46.44
2018-08-14T19:28:22.792Z,47.05
2018-08-14T19:30:52.647Z,46.59
2018-08-14T19:33:22.340Z,47.01
2018-08-14T19:35:52.313Z,46.91
2018-08-14T19:38:20.955Z,46.92
2018-08-14T19:40:51.999Z,46.60
2018-08-14T19:43:24.690Z,47.16
2018-08-14T19:45:55.357Z,46.68
2018-08-14T19:48:25.588Z,46.62
2018-08-14T19:51:09.182Z,47.18
2018-08-14T19:53:38.188Z,47.08
2018-08-14T19:56:06.833Z,47.60
2018-08-14T19:58:38.020Z,47.37
2018-08-14T20:01:06.616Z,47.60
2018-08-14T20:03:35.231Z,47.68
2018-08-14T20:06:03.831Z,47.73
2018-08-14T20:08:32.583Z,48.40
2018-08-14T20:11:01.211Z,48.65
2018-08-14T20:13:29.798Z,48.80
2018-08-14T20:16:03.956Z,48.46
2018-08-14T20:18:33.003Z,49.08
2018-08-14T20:21:01.608Z,48.78
2018-08-14T20:23:30.289Z,48.98
2018-08-14T20:25:59.088Z,49.11
2018-08-14T20:28:27.628Z,49.23
2018-08-14T20:30:56.375Z,48.71
2018-08-14T20:33:24.960Z,49.67
2018-08-14T20:35:53.557Z,49.69
2018-08-14T20:38:22.347Z,49.80
2018-08-14T20:40:50.991Z,49.84
2018-08-14T20:43:19.568Z,50.37
2018-08-14T20:45:48.360Z,50.39
2018-08-14T20:48:16.911Z,49.82
2018-08-14T20:50:45.500Z,49.80
2018-08-14T20:53:14.312Z,50.29
2018-08-14T20:55:42.948Z,49.90
2018-08-14T20:58:11.744Z,50.64
2018-08-14T21:00:40.445Z,50.24
2018-08-14T21:03:09.499Z,50.82
2018-08-14T21:05:38.718Z,50.13
2018-08-14T21:08:07.896Z,51.00
2018-08-14T21:10:36.963Z,51.37
2018-08-14T21:13:06.225Z,51.24
2018-08-14T21:15:41.094Z,51.54
2018-08-14T21:18:09.650Z,52.16
2018-08-14T21:20:38.240Z,52.61
2018-08-14T21:23:07.195Z,52.95
2018-08-14T21:25:36.279Z,53.53
2018-08-14T21:28:06.190Z,53.24
2018-08-14T21:30:34.919Z,53.96
2018-08-14T21:33:03.832Z,54.03
2018-08-14T21:35:36.462Z,54.43
2018-08-14T21:38:05.141Z,54.13
2018-08-14T21:40:33.799Z,54.68
2018-08-14T21:43:02.623Z,54.85
2018-08-14T21:45:31.195Z,55.06
2018-08-14T21:47:59.939Z,55.68
2018-08-14T21:50:28.619Z,55.93
2018-08-14T21:52:57.169Z,55.61
2018-08-14T21:55:25.712Z,55.50
2018-08-14T21:57:54.335Z,55.50
2018-08-14T22:00:29.368Z,55.99
2018-08-14T22:02:57.966Z,55.42
2018-08-14T22:08:42.424Z,55.25
2018-08-14T22:11:33.818Z,54.60
2018-08-14T22:14:02.889Z,54.92
2018-08-14T22:16:31.623Z,54.97
2018-08-14T22:19:00.158Z,55.08
2018-08-14T22:21:28.912Z,55.31
2018-08-14T22:23:57.424Z,55.02
2018-08-14T22:26:26.054Z,55.17
2018-08-14T22:28:54.654Z,56.04
2018-08-14T22:31:23.180Z,55.26
2018-08-14T22:33:51.720Z,56.10
2018-08-14T22:36:20.529Z,56.42
2018-08-14T22:38:49.068Z,56.27
2018-08-14T22:41:17.667Z,56.54
2018-08-14T22:43:46.247Z,57.05
2018-08-14T22:46:14.770Z,56.76
2018-08-14T22:48:43.299Z,56.67
2018-08-14T22:51:11.976Z,56.79
2018-08-14T22:53:40.552Z,57.19
2018-08-14T22:56:09.159Z,57.31
2018-08-14T22:58:37.836Z,57.42
2018-08-14T23:01:06.428Z,57.80
2018-08-14T23:03:35.020Z,57.76
2018-08-14T23:06:03.734Z,57.38
2018-08-14T23:08:32.248Z,57.56
2018-08-14T23:11:00.792Z,57.92
2018-08-14T23:13:29.436Z,57.97
2018-08-14T23:16:02.963Z,57.73
2018-08-14T23:18:31.564Z,58.30
2018-08-14T23:21:00.096Z,57.81
2018-08-14T23:23:28.646Z,57.99
2018-08-14T23:25:57.387Z,58.11
2018-08-14T23:28:25.925Z,58.28
2018-08-14T23:30:54.519Z,58.44
2018-08-14T23:33:23.060Z,57.90
2018-08-14T23:35:51.599Z,58.37
2018-08-14T23:38:20.154Z,58.08
2018-08-14T23:40:48.761Z,57.83
2018-08-14T23:43:17.315Z,58.48
2018-08-14T23:45:45.888Z,58.13
2018-08-14T23:48:14.500Z,57.89
2018-08-14T23:50:43.040Z,58.06
2018-08-14T23:53:11.645Z,58.12
2018-08-14T23:55:40.243Z,57.56
2018-08-14T23:58:08.821Z,58.23
